Terminal Aerodrome Forecast
Issued by NWS

Home | Current Version | Previous Version | Text Only | Print | Product List | Glossary On
Versions: 1 2 3 4 5 6 7 8 9 10 11 12
000
FTUS44 KLUB 262300
TAFCDS
TAF
KCDS 262320Z 2700/2724 01013KT P6SM BKN100
     FM270600 36014KT P6SM SCT040 OVC080
     FM271700 35009KT P6SM SCT100=

USA.gov is the U.S. government's official web portal to all federal, state and local government web resources and services.